sensor_id;sensor_type;location;lat;lon;timestamp;temperature;humidity
2729;DHT22;1372;47.956;7.830;2022-09-16T00:01:14;15.60;99.90
2729;DHT22;1372;47.956;7.830;2022-09-16T00:03:44;15.60;99.90
2729;DHT22;1372;47.956;7.830;2022-09-16T00:06:17;15.60;99.90
2729;DHT22;1372;47.956;7.830;2022-09-16T00:08:47;15.50;99.90
2729;DHT22;1372;47.956;7.830;2022-09-16T00:11:16;15.50;99.90
2729;DHT22;1372;47.956;7.830;2022-09-16T00:13:46;15.50;99.90
2729;DHT22;1372;47.956;7.830;2022-09-16T00:16:18;15.50;99.90
2729;DHT22;1372;47.956;7.830;2022-09-16T00:18:52;15.50;99.90
2729;DHT22;1372;47.956;7.830;2022-09-16T00:21:22;15.50;99.90
2729;DHT22;1372;47.956;7.830;2022-09-16T00:23:52;15.50;99.90
2729;DHT22;1372;47.956;7.830;2022-09-16T00:26:40;15.40;99.90
2729;DHT22;1372;47.956;7.830;2022-09-16T00:29:29;15.40;99.90
2729;DHT22;1372;47.956;7.830;2022-09-16T00:31:59;15.20;99.90
2729;DHT22;1372;47.956;7.830;2022-09-16T00:34:48;15.10;99.90
2729;DHT22;1372;47.956;7.830;2022-09-16T00:37:17;15.10;99.90
2729;DHT22;1372;47.956;7.830;2022-09-16T00:39:47;15.20;99.90
2729;DHT22;1372;47.956;7.830;2022-09-16T00:42:16;15.20;99.90
2729;DHT22;1372;47.956;7.830;2022-09-16T00:44:54;15.20;99.90
2729;DHT22;1372;47.956;7.830;2022-09-16T00:47:30;15.10;99.90
2729;DHT22;1372;47.956;7.830;2022-09-16T00:50:05;15.10;99.90
2729;DHT22;1372;47.956;7.830;2022-09-16T00:52:36;15.10;99.90
2729;DHT22;1372;47.956;7.830;2022-09-16T00:55:09;15.10;99.90
2729;DHT22;1372;47.956;7.830;2022-09-16T00:57:41;15.10;99.90
2729;DHT22;1372;47.956;7.830;2022-09-16T01:00:29;15.00;99.90
2729;DHT22;1372;47.956;7.830;2022-09-16T01:03:00;14.90;99.90
2729;DHT22;1372;47.956;7.830;2022-09-16T01:05:28;14.90;99.90
2729;DHT22;1372;47.956;7.830;2022-09-16T01:07:57;14.90;99.90
2729;DHT22;1372;47.956;7.830;2022-09-16T01:10:26;14.80;99.90
2729;DHT22;1372;47.956;7.830;2022-09-16T01:12:59;14.80;99.90
2729;DHT22;1372;47.956;7.830;2022-09-16T01:15:32;14.90;99.90
2729;DHT22;1372;47.956;7.830;2022-09-16T01:18:13;14.90;99.90
2729;DHT22;1372;47.956;7.830;2022-09-16T01:21:10;15.00;99.90
2729;DHT22;1372;47.956;7.830;2022-09-16T01:24:09;15.00;99.90
2729;DHT22;1372;47.956;7.830;2022-09-16T01:27:17;14.90;99.90
2729;DHT22;1372;47.956;7.830;2022-09-16T01:30:38;15.00;99.90
2729;DHT22;1372;47.956;7.830;2022-09-16T01:33:33;14.90;99.90
2729;DHT22;1372;47.956;7.830;2022-09-16T01:36:35;14.80;99.90
2729;DHT22;1372;47.956;7.830;2022-09-16T01:39:17;14.80;99.90
2729;DHT22;1372;47.956;7.830;2022-09-16T01:42:06;14.90;99.90
2729;DHT22;1372;47.956;7.830;2022-09-16T01:44:47;14.90;99.90
2729;DHT22;1372;47.956;7.830;2022-09-16T01:47:29;15.00;99.90
2729;DHT22;1372;47.956;7.830;2022-09-16T01:50:13;15.00;99.90
2729;DHT22;1372;47.956;7.830;2022-09-16T01:52:53;15.00;99.90
2729;DHT22;1372;47.956;7.830;2022-09-16T01:55:30;14.90;99.90
2729;DHT22;1372;47.956;7.830;2022-09-16T01:58:04;15.00;99.90
2729;DHT22;1372;47.956;7.830;2022-09-16T02:00:34;15.00;99.90
2729;DHT22;1372;47.956;7.830;2022-09-16T02:03:06;15.00;99.90
2729;DHT22;1372;47.956;7.830;2022-09-16T02:05:41;14.90;99.90
2729;DHT22;1372;47.956;7.830;2022-09-16T02:08:19;14.90;99.90
2729;DHT22;1372;47.956;7.830;2022-09-16T02:11:14;14.90;99.90
2729;DHT22;1372;47.956;7.830;2022-09-16T02:13:47;15.00;99.90
2729;DHT22;1372;47.956;7.830;2022-09-16T02:16:41;15.00;99.90
2729;DHT22;1372;47.956;7.830;2022-09-16T02:19:38;15.00;99.90
2729;DHT22;1372;47.956;7.830;2022-09-16T02:22:16;15.00;99.90
2729;DHT22;1372;47.956;7.830;2022-09-16T02:24:47;14.90;99.90
2729;DHT22;1372;47.956;7.830;2022-09-16T02:27:18;14.90;99.90
2729;DHT22;1372;47.956;7.830;2022-09-16T02:29:54;14.90;99.90
2729;DHT22;1372;47.956;7.830;2022-09-16T02:32:26;14.90;99.90
2729;DHT22;1372;47.956;7.830;2022-09-16T02:34:58;14.90;99.90
2729;DHT22;1372;47.956;7.830;2022-09-16T02:37:29;14.90;99.90
2729;DHT22;1372;47.956;7.830;2022-09-16T02:40:13;14.90;99.90
2729;DHT22;1372;47.956;7.830;2022-09-16T02:42:45;14.90;99.90
2729;DHT22;1372;47.956;7.830;2022-09-16T02:45:14;14.90;99.90
2729;DHT22;1372;47.956;7.830;2022-09-16T02:47:48;15.00;99.90
2729;DHT22;1372;47.956;7.830;2022-09-16T02:50:27;15.10;99.90
2729;DHT22;1372;47.956;7.830;2022-09-16T02:53:00;15.10;99.90
2729;DHT22;1372;47.956;7.830;2022-09-16T02:55:34;15.10;99.90
2729;DHT22;1372;47.956;7.830;2022-09-16T02:58:06;15.20;99.90
2729;DHT22;1372;47.956;7.830;2022-09-16T03:00:42;15.10;99.90
2729;DHT22;1372;47.956;7.830;2022-09-16T03:03:13;15.10;99.90
2729;DHT22;1372;47.956;7.830;2022-09-16T03:06:02;15.10;99.90
2729;DHT22;1372;47.956;7.830;2022-09-16T03:08:39;15.10;99.90
2729;DHT22;1372;47.956;7.830;2022-09-16T03:11:21;15.10;99.90
2729;DHT22;1372;47.956;7.830;2022-09-16T03:14:08;15.20;99.90
2729;DHT22;1372;47.956;7.830;2022-09-16T03:16:51;15.20;99.90
2729;DHT22;1372;47.956;7.830;2022-09-16T03:19:32;15.20;99.90
2729;DHT22;1372;47.956;7.830;2022-09-16T03:22:15;15.10;99.90
2729;DHT22;1372;47.956;7.830;2022-09-16T03:24:52;15.10;99.90
2729;DHT22;1372;47.956;7.830;2022-09-16T03:27:49;15.10;99.90
2729;DHT22;1372;47.956;7.830;2022-09-16T03:30:19;15.20;99.90
2729;DHT22;1372;47.956;7.830;2022-09-16T03:32:51;15.20;99.90
2729;DHT22;1372;47.956;7.830;2022-09-16T03:35:26;15.30;99.90
2729;DHT22;1372;47.956;7.830;2022-09-16T03:38:00;15.30;99.90
2729;DHT22;1372;47.956;7.830;2022-09-16T03:40:32;15.30;99.90
2729;DHT22;1372;47.956;7.830;2022-09-16T03:43:09;15.30;99.90
2729;DHT22;1372;47.956;7.830;2022-09-16T03:45:38;15.30;99.90
2729;DHT22;1372;47.956;7.830;2022-09-16T03:48:09;15.40;99.90
2729;DHT22;1372;47.956;7.830;2022-09-16T03:50:39;15.40;99.90
2729;DHT22;1372;47.956;7.830;2022-09-16T03:53:10;15.30;99.90
2729;DHT22;1372;47.956;7.830;2022-09-16T03:55:38;15.30;99.90
2729;DHT22;1372;47.956;7.830;2022-09-16T03:58:07;15.40;99.90
2729;DHT22;1372;47.956;7.830;2022-09-16T04:00:56;15.40;99.90
2729;DHT22;1372;47.956;7.830;2022-09-16T04:03:30;15.40;99.90
2729;DHT22;1372;47.956;7.830;2022-09-16T04:05:59;15.40;99.90
2729;DHT22;1372;47.956;7.830;2022-09-16T04:08:38;15.40;99.90
2729;DHT22;1372;47.956;7.830;2022-09-16T04:11:08;15.40;99.90
2729;DHT22;1372;47.956;7.830;2022-09-16T04:13:36;15.30;99.90
2729;DHT22;1372;47.956;7.830;2022-09-16T04:16:05;15.30;99.90
2729;DHT22;1372;47.956;7.830;2022-09-16T04:18:34;15.40;99.90
2729;DHT22;1372;47.956;7.830;2022-09-16T04:21:04;15.40;99.90
2729;DHT22;1372;47.956;7.830;2022-09-16T04:23:33;15.40;99.90
2729;DHT22;1372;47.956;7.830;2022-09-16T04:26:03;15.40;99.90
2729;DHT22;1372;47.956;7.830;2022-09-16T04:28:33;15.40;99.90
2729;DHT22;1372;47.956;7.830;2022-09-16T04:31:03;15.30;99.90
2729;DHT22;1372;47.956;7.830;2022-09-16T04:33:34;15.30;99.90
2729;DHT22;1372;47.956;7.830;2022-09-16T04:36:23;15.30;99.90
2729;DHT22;1372;47.956;7.830;2022-09-16T04:38:51;15.30;99.90
2729;DHT22;1372;47.956;7.830;2022-09-16T04:46:31;15.30;99.90
2729;DHT22;1372;47.956;7.830;2022-09-16T04:49:10;15.30;99.90
2729;DHT22;1372;47.956;7.830;2022-09-16T04:51:39;15.30;99.90
2729;DHT22;1372;47.956;7.830;2022-09-16T04:54:08;15.30;99.90
2729;DHT22;1372;47.956;7.830;2022-09-16T04:56:37;15.30;99.90
2729;DHT22;1372;47.956;7.830;2022-09-16T04:59:06;15.40;99.90
2729;DHT22;1372;47.956;7.830;2022-09-16T05:01:37;15.40;99.90
2729;DHT22;1372;47.956;7.830;2022-09-16T05:04:08;15.40;99.90
2729;DHT22;1372;47.956;7.830;2022-09-16T05:06:57;15.40;99.90
2729;DHT22;1372;47.956;7.830;2022-09-16T05:09:28;15.40;99.90
2729;DHT22;1372;47.956;7.830;2022-09-16T05:11:56;15.40;99.90
2729;DHT22;1372;47.956;7.830;2022-09-16T05:14:25;15.40;99.90
2729;DHT22;1372;47.956;7.830;2022-09-16T05:16:56;15.40;99.90
2729;DHT22;1372;47.956;7.830;2022-09-16T05:19:25;15.40;99.90
2729;DHT22;1372;47.956;7.830;2022-09-16T05:21:56;15.40;99.90
2729;DHT22;1372;47.956;7.830;2022-09-16T05:24:24;15.40;99.90
2729;DHT22;1372;47.956;7.830;2022-09-16T05:26:56;15.40;99.90
2729;DHT22;1372;47.956;7.830;2022-09-16T05:29:24;15.50;99.90
2729;DHT22;1372;47.956;7.830;2022-09-16T05:31:53;15.40;99.90
2729;DHT22;1372;47.956;7.830;2022-09-16T05:34:23;15.40;99.90
2729;DHT22;1372;47.956;7.830;2022-09-16T05:36:55;15.40;99.90
2729;DHT22;1372;47.956;7.830;2022-09-16T05:39:24;15.40;99.90
2729;DHT22;1372;47.956;7.830;2022-09-16T05:41:57;15.40;99.90
2729;DHT22;1372;47.956;7.830;2022-09-16T05:44:27;15.40;99.90
2729;DHT22;1372;47.956;7.830;2022-09-16T05:46:56;15.40;99.90
2729;DHT22;1372;47.956;7.830;2022-09-16T05:49:26;15.40;99.90
2729;DHT22;1372;47.956;7.830;2022-09-16T05:52:14;15.40;99.90
2729;DHT22;1372;47.956;7.830;2022-09-16T05:54:43;15.40;99.90
2729;DHT22;1372;47.956;7.830;2022-09-16T05:57:12;15.30;99.90
2729;DHT22;1372;47.956;7.830;2022-09-16T06:00:01;15.30;99.90
2729;DHT22;1372;47.956;7.830;2022-09-16T06:02:30;15.30;99.90
2729;DHT22;1372;47.956;7.830;2022-09-16T06:05:00;15.30;99.90
2729;DHT22;1372;47.956;7.830;2022-09-16T06:07:29;15.30;99.90
2729;DHT22;1372;47.956;7.830;2022-09-16T06:09:57;15.30;99.90
2729;DHT22;1372;47.956;7.830;2022-09-16T06:12:27;15.30;99.90
2729;DHT22;1372;47.956;7.830;2022-09-16T06:14:55;15.40;99.90
2729;DHT22;1372;47.956;7.830;2022-09-16T06:17:24;15.40;99.90
2729;DHT22;1372;47.956;7.830;2022-09-16T06:19:53;15.30;99.90
2729;DHT22;1372;47.956;7.830;2022-09-16T06:22:29;15.30;99.90
2729;DHT22;1372;47.956;7.830;2022-09-16T06:25:00;15.30;99.90
2729;DHT22;1372;47.956;7.830;2022-09-16T06:27:48;15.30;99.90
2729;DHT22;1372;47.956;7.830;2022-09-16T06:30:17;15.30;99.90
2729;DHT22;1372;47.956;7.830;2022-09-16T06:32:45;15.20;99.90
2729;DHT22;1372;47.956;7.830;2022-09-16T06:35:14;15.20;99.90
2729;DHT22;1372;47.956;7.830;2022-09-16T06:37:44;15.30;99.90
2729;DHT22;1372;47.956;7.830;2022-09-16T06:40:13;15.20;99.90
2729;DHT22;1372;47.956;7.830;2022-09-16T06:42:41;15.30;99.90
2729;DHT22;1372;47.956;7.830;2022-09-16T06:45:10;15.30;99.90
2729;DHT22;1372;47.956;7.830;2022-09-16T06:47:41;15.30;99.90
2729;DHT22;1372;47.956;7.830;2022-09-16T06:50:12;15.30;99.90
2729;DHT22;1372;47.956;7.830;2022-09-16T06:52:41;15.30;99.90
2729;DHT22;1372;47.956;7.830;2022-09-16T06:55:12;15.30;99.90
2729;DHT22;1372;47.956;7.830;2022-09-16T06:57:41;15.40;99.90
2729;DHT22;1372;47.956;7.830;2022-09-16T07:00:11;15.30;99.90
2729;DHT22;1372;47.956;7.830;2022-09-16T07:03:01;15.30;99.90
2729;DHT22;1372;47.956;7.830;2022-09-16T07:05:32;15.40;99.90
2729;DHT22;1372;47.956;7.830;2022-09-16T07:08:01;15.30;99.90
2729;DHT22;1372;47.956;7.830;2022-09-16T07:10:31;15.40;99.90
2729;DHT22;1372;47.956;7.830;2022-09-16T07:13:00;15.40;99.90
2729;DHT22;1372;47.956;7.830;2022-09-16T07:15:32;15.30;99.90
2729;DHT22;1372;47.956;7.830;2022-09-16T07:18:08;15.50;99.90
2729;DHT22;1372;47.956;7.830;2022-09-16T07:20:36;15.40;99.90
2729;DHT22;1372;47.956;7.830;2022-09-16T07:23:05;15.40;99.90
2729;DHT22;1372;47.956;7.830;2022-09-16T07:25:35;15.40;99.90
2729;DHT22;1372;47.956;7.830;2022-09-16T07:28:04;15.40;99.90
2729;DHT22;1372;47.956;7.830;2022-09-16T07:30:35;15.50;99.90
2729;DHT22;1372;47.956;7.830;2022-09-16T07:33:06;15.50;99.90
2729;DHT22;1372;47.956;7.830;2022-09-16T07:35:34;15.50;99.90
2729;DHT22;1372;47.956;7.830;2022-09-16T07:38:23;15.70;99.90
2729;DHT22;1372;47.956;7.830;2022-09-16T07:40:52;15.70;99.90
2729;DHT22;1372;47.956;7.830;2022-09-16T07:43:21;15.70;99.90
2729;DHT22;1372;47.956;7.830;2022-09-16T07:45:55;15.70;99.90
2729;DHT22;1372;47.956;7.830;2022-09-16T07:48:24;15.50;99.90
2729;DHT22;1372;47.956;7.830;2022-09-16T07:51:00;15.50;99.90
2729;DHT22;1372;47.956;7.830;2022-09-16T07:53:30;15.40;99.90
2729;DHT22;1372;47.956;7.830;2022-09-16T07:56:03;15.30;99.90
2729;DHT22;1372;47.956;7.830;2022-09-16T07:58:34;15.20;99.90
2729;DHT22;1372;47.956;7.830;2022-09-16T08:01:06;15.20;99.90
2729;DHT22;1372;47.956;7.830;2022-09-16T08:03:38;15.00;99.90
2729;DHT22;1372;47.956;7.830;2022-09-16T08:06:29;15.00;99.90
2729;DHT22;1372;47.956;7.830;2022-09-16T08:08:59;14.80;99.90
2729;DHT22;1372;47.956;7.830;2022-09-16T08:11:37;14.70;99.90
2729;DHT22;1372;47.956;7.830;2022-09-16T08:14:06;14.60;99.90
2729;DHT22;1372;47.956;7.830;2022-09-16T08:16:34;14.50;99.90
2729;DHT22;1372;47.956;7.830;2022-09-16T08:19:06;14.50;99.90
2729;DHT22;1372;47.956;7.830;2022-09-16T08:21:36;14.40;99.90
2729;DHT22;1372;47.956;7.830;2022-09-16T08:24:07;14.40;99.90
2729;DHT22;1372;47.956;7.830;2022-09-16T08:26:40;14.40;99.90
2729;DHT22;1372;47.956;7.830;2022-09-16T08:29:09;14.50;99.90
2729;DHT22;1372;47.956;7.830;2022-09-16T08:31:58;14.50;99.90
2729;DHT22;1372;47.956;7.830;2022-09-16T08:34:26;14.50;99.90
2729;DHT22;1372;47.956;7.830;2022-09-16T08:36:55;14.50;99.90
2729;DHT22;1372;47.956;7.830;2022-09-16T08:39:24;14.50;99.90
2729;DHT22;1372;47.956;7.830;2022-09-16T08:42:02;14.60;99.90
2729;DHT22;1372;47.956;7.830;2022-09-16T08:44:53;14.50;99.90
2729;DHT22;1372;47.956;7.830;2022-09-16T08:47:37;14.50;99.90
2729;DHT22;1372;47.956;7.830;2022-09-16T08:50:15;14.50;99.90
2729;DHT22;1372;47.956;7.830;2022-09-16T08:52:47;14.50;99.90
2729;DHT22;1372;47.956;7.830;2022-09-16T08:55:25;14.40;99.90
2729;DHT22;1372;47.956;7.830;2022-09-16T08:58:02;14.40;99.90
2729;DHT22;1372;47.956;7.830;2022-09-16T09:00:33;14.40;99.90
2729;DHT22;1372;47.956;7.830;2022-09-16T09:03:09;14.40;99.90
2729;DHT22;1372;47.956;7.830;2022-09-16T09:06:05;14.40;99.90
2729;DHT22;1372;47.956;7.830;2022-09-16T09:08:48;14.50;99.90
2729;DHT22;1372;47.956;7.830;2022-09-16T09:11:27;14.60;99.90
2729;DHT22;1372;47.956;7.830;2022-09-16T09:14:20;14.70;99.90
2729;DHT22;1372;47.956;7.830;2022-09-16T09:17:01;14.70;99.90
2729;DHT22;1372;47.956;7.830;2022-09-16T09:19:44;14.70;99.90
2729;DHT22;1372;47.956;7.830;2022-09-16T09:22:28;14.80;99.90
2729;DHT22;1372;47.956;7.830;2022-09-16T09:25:21;14.80;99.90
2729;DHT22;1372;47.956;7.830;2022-09-16T09:28:02;14.80;99.90
2729;DHT22;1372;47.956;7.830;2022-09-16T09:30:43;14.90;99.90
2729;DHT22;1372;47.956;7.830;2022-09-16T09:33:25;14.90;99.90
2729;DHT22;1372;47.956;7.830;2022-09-16T09:36:24;15.00;99.90
2729;DHT22;1372;47.956;7.830;2022-09-16T09:39:16;15.00;99.90
2729;DHT22;1372;47.956;7.830;2022-09-16T09:42:39;15.00;99.90
2729;DHT22;1372;47.956;7.830;2022-09-16T09:45:20;15.10;99.90
2729;DHT22;1372;47.956;7.830;2022-09-16T09:47:56;15.10;99.90
2729;DHT22;1372;47.956;7.830;2022-09-16T09:50:29;15.10;99.90
2729;DHT22;1372;47.956;7.830;2022-09-16T09:53:08;15.10;99.90
2729;DHT22;1372;47.956;7.830;2022-09-16T09:55:41;15.20;99.90
2729;DHT22;1372;47.956;7.830;2022-09-16T09:58:20;15.20;99.90
2729;DHT22;1372;47.956;7.830;2022-09-16T10:01:10;15.20;99.90
2729;DHT22;1372;47.956;7.830;2022-09-16T10:03:40;15.20;99.90
2729;DHT22;1372;47.956;7.830;2022-09-16T10:06:11;15.10;99.90
2729;DHT22;1372;47.956;7.830;2022-09-16T10:08:44;15.10;99.90
2729;DHT22;1372;47.956;7.830;2022-09-16T10:11:16;15.10;99.90
2729;DHT22;1372;47.956;7.830;2022-09-16T10:13:47;15.20;99.90
2729;DHT22;1372;47.956;7.830;2022-09-16T10:16:19;15.30;99.90
2729;DHT22;1372;47.956;7.830;2022-09-16T10:18:57;15.50;99.90
2729;DHT22;1372;47.956;7.830;2022-09-16T10:21:39;15.50;99.90
2729;DHT22;1372;47.956;7.830;2022-09-16T10:24:28;15.60;99.90
2729;DHT22;1372;47.956;7.830;2022-09-16T10:27:01;15.50;99.90
2729;DHT22;1372;47.956;7.830;2022-09-16T10:29:30;15.60;99.90
2729;DHT22;1372;47.956;7.830;2022-09-16T10:32:05;15.60;99.90
2729;DHT22;1372;47.956;7.830;2022-09-16T10:34:37;15.70;99.90
2729;DHT22;1372;47.956;7.830;2022-09-16T10:37:16;15.70;99.90
2729;DHT22;1372;47.956;7.830;2022-09-16T10:39:50;15.70;99.90
2729;DHT22;1372;47.956;7.830;2022-09-16T10:42:21;15.70;99.90
2729;DHT22;1372;47.956;7.830;2022-09-16T10:44:52;15.60;99.90
2729;DHT22;1372;47.956;7.830;2022-09-16T10:47:25;15.50;99.90
2729;DHT22;1372;47.956;7.830;2022-09-16T10:50:18;15.50;99.90
2729;DHT22;1372;47.956;7.830;2022-09-16T10:52:48;15.50;99.90
2729;DHT22;1372;47.956;7.830;2022-09-16T10:55:24;15.60;99.90
2729;DHT22;1372;47.956;7.830;2022-09-16T10:58:06;15.60;99.90
2729;DHT22;1372;47.956;7.830;2022-09-16T11:00:44;15.50;99.90
2729;DHT22;1372;47.956;7.830;2022-09-16T11:03:53;15.50;99.90
2729;DHT22;1372;47.956;7.830;2022-09-16T11:07:14;15.50;99.90
2729;DHT22;1372;47.956;7.830;2022-09-16T11:10:16;15.50;99.90
2729;DHT22;1372;47.956;7.830;2022-09-16T11:13:20;15.50;99.90
2729;DHT22;1372;47.956;7.830;2022-09-16T11:18:59;15.50;99.90
2729;DHT22;1372;47.956;7.830;2022-09-16T11:21:47;15.40;99.90
2729;DHT22;1372;47.956;7.830;2022-09-16T11:24:42;15.40;99.90
2729;DHT22;1372;47.956;7.830;2022-09-16T11:27:23;15.40;99.90
2729;DHT22;1372;47.956;7.830;2022-09-16T11:30:07;15.50;99.90
2729;DHT22;1372;47.956;7.830;2022-09-16T11:33:12;15.50;99.90
2729;DHT22;1372;47.956;7.830;2022-09-16T11:36:20;15.40;99.90
2729;DHT22;1372;47.956;7.830;2022-09-16T11:39:26;15.40;99.90
2729;DHT22;1372;47.956;7.830;2022-09-16T11:42:12;15.40;99.90
2729;DHT22;1372;47.956;7.830;2022-09-16T11:44:46;15.40;99.90
2729;DHT22;1372;47.956;7.830;2022-09-16T11:47:45;15.30;99.90
2729;DHT22;1372;47.956;7.830;2022-09-16T11:50:44;15.40;99.90
2729;DHT22;1372;47.956;7.830;2022-09-16T11:53:36;15.30;99.90
2729;DHT22;1372;47.956;7.830;2022-09-16T11:56:17;15.20;99.90
2729;DHT22;1372;47.956;7.830;2022-09-16T11:58:51;15.10;99.90
2729;DHT22;1372;47.956;7.830;2022-09-16T12:01:29;15.10;99.90
2729;DHT22;1372;47.956;7.830;2022-09-16T12:04:12;15.10;99.90
2729;DHT22;1372;47.956;7.830;2022-09-16T12:06:51;15.20;99.90
2729;DHT22;1372;47.956;7.830;2022-09-16T12:09:30;15.30;99.90
2729;DHT22;1372;47.956;7.830;2022-09-16T12:12:12;15.40;99.90
2729;DHT22;1372;47.956;7.830;2022-09-16T12:15:03;15.50;99.90
2729;DHT22;1372;47.956;7.830;2022-09-16T12:17:36;15.40;99.90
2729;DHT22;1372;47.956;7.830;2022-09-16T12:20:14;15.40;99.90
2729;DHT22;1372;47.956;7.830;2022-09-16T12:22:49;15.30;99.90
2729;DHT22;1372;47.956;7.830;2022-09-16T12:25:29;15.20;99.90
2729;DHT22;1372;47.956;7.830;2022-09-16T12:28:05;15.00;99.90
2729;DHT22;1372;47.956;7.830;2022-09-16T12:30:41;15.00;99.90
2729;DHT22;1372;47.956;7.830;2022-09-16T12:33:16;15.00;99.90
2729;DHT22;1372;47.956;7.830;2022-09-16T12:36:03;15.00;99.90
2729;DHT22;1372;47.956;7.830;2022-09-16T12:38:39;15.10;99.90
2729;DHT22;1372;47.956;7.830;2022-09-16T12:41:30;15.10;99.90
2729;DHT22;1372;47.956;7.830;2022-09-16T12:44:40;15.10;99.90
2729;DHT22;1372;47.956;7.830;2022-09-16T12:50:46;15.10;99.90
2729;DHT22;1372;47.956;7.830;2022-09-16T12:54:00;15.10;99.90
2729;DHT22;1372;47.956;7.830;2022-09-16T12:56:46;15.20;99.90
2729;DHT22;1372;47.956;7.830;2022-09-16T13:02:46;15.40;99.90
2729;DHT22;1372;47.956;7.830;2022-09-16T13:05:23;15.50;99.90
2729;DHT22;1372;47.956;7.830;2022-09-16T13:07:57;15.60;99.90
2729;DHT22;1372;47.956;7.830;2022-09-16T13:10:56;15.90;99.90
2729;DHT22;1372;47.956;7.830;2022-09-16T13:13:48;16.20;99.90
2729;DHT22;1372;47.956;7.830;2022-09-16T13:16:29;16.30;99.90
2729;DHT22;1372;47.956;7.830;2022-09-16T13:19:26;16.10;99.90
2729;DHT22;1372;47.956;7.830;2022-09-16T13:22:15;16.00;99.90
2729;DHT22;1372;47.956;7.830;2022-09-16T13:25:10;15.90;99.90
2729;DHT22;1372;47.956;7.830;2022-09-16T13:27:56;15.70;99.90
2729;DHT22;1372;47.956;7.830;2022-09-16T13:30:45;15.60;99.90
2729;DHT22;1372;47.956;7.830;2022-09-16T13:33:34;15.60;99.90
2729;DHT22;1372;47.956;7.830;2022-09-16T13:36:31;15.50;99.90
2729;DHT22;1372;47.956;7.830;2022-09-16T13:39:03;15.40;99.90
2729;DHT22;1372;47.956;7.830;2022-09-16T13:41:35;15.40;99.90
2729;DHT22;1372;47.956;7.830;2022-09-16T13:44:29;15.40;99.90
2729;DHT22;1372;47.956;7.830;2022-09-16T13:47:27;15.30;99.90
2729;DHT22;1372;47.956;7.830;2022-09-16T13:50:01;15.40;99.90
2729;DHT22;1372;47.956;7.830;2022-09-16T13:52:35;15.50;99.90
2729;DHT22;1372;47.956;7.830;2022-09-16T13:55:18;15.50;99.90
2729;DHT22;1372;47.956;7.830;2022-09-16T13:57:57;15.50;99.90
2729;DHT22;1372;47.956;7.830;2022-09-16T14:00:33;15.50;99.90
2729;DHT22;1372;47.956;7.830;2022-09-16T14:03:38;15.40;99.90
2729;DHT22;1372;47.956;7.830;2022-09-16T14:09:39;15.20;99.90
2729;DHT22;1372;47.956;7.830;2022-09-16T14:12:22;15.00;99.90
2729;DHT22;1372;47.956;7.830;2022-09-16T14:14:56;14.90;99.90
2729;DHT22;1372;47.956;7.830;2022-09-16T14:17:27;14.80;99.90
2729;DHT22;1372;47.956;7.830;2022-09-16T14:20:04;14.80;99.90
2729;DHT22;1372;47.956;7.830;2022-09-16T14:22:39;14.80;99.90
2729;DHT22;1372;47.956;7.830;2022-09-16T14:25:30;14.80;99.90
2729;DHT22;1372;47.956;7.830;2022-09-16T14:28:22;14.80;99.90
2729;DHT22;1372;47.956;7.830;2022-09-16T14:30:54;14.80;99.90
2729;DHT22;1372;47.956;7.830;2022-09-16T14:33:28;14.70;99.90
2729;DHT22;1372;47.956;7.830;2022-09-16T14:35:59;14.70;99.90
2729;DHT22;1372;47.956;7.830;2022-09-16T14:38:42;14.80;99.90
2729;DHT22;1372;47.956;7.830;2022-09-16T14:41:22;14.80;99.90
2729;DHT22;1372;47.956;7.830;2022-09-16T14:43:54;14.70;99.90
2729;DHT22;1372;47.956;7.830;2022-09-16T14:46:29;14.60;99.90
2729;DHT22;1372;47.956;7.830;2022-09-16T14:48:59;14.70;99.90
2729;DHT22;1372;47.956;7.830;2022-09-16T14:51:28;14.70;99.90
2729;DHT22;1372;47.956;7.830;2022-09-16T14:53:59;14.80;99.90
2729;DHT22;1372;47.956;7.830;2022-09-16T14:56:59;14.80;99.90
2729;DHT22;1372;47.956;7.830;2022-09-16T14:59:51;14.80;99.90
2729;DHT22;1372;47.956;7.830;2022-09-16T15:02:41;14.70;99.90
2729;DHT22;1372;47.956;7.830;2022-09-16T15:05:34;14.70;99.90
2729;DHT22;1372;47.956;7.830;2022-09-16T15:08:09;14.70;99.90
2729;DHT22;1372;47.956;7.830;2022-09-16T15:11:10;14.70;99.90
2729;DHT22;1372;47.956;7.830;2022-09-16T15:13:58;14.80;99.90
2729;DHT22;1372;47.956;7.830;2022-09-16T15:16:27;14.80;99.90
2729;DHT22;1372;47.956;7.830;2022-09-16T15:19:00;14.90;99.90
2729;DHT22;1372;47.956;7.830;2022-09-16T15:21:33;14.90;99.90
2729;DHT22;1372;47.956;7.830;2022-09-16T15:24:13;14.90;99.90
2729;DHT22;1372;47.956;7.830;2022-09-16T15:26:46;14.90;99.90
2729;DHT22;1372;47.956;7.830;2022-09-16T15:29:30;14.90;99.90
2729;DHT22;1372;47.956;7.830;2022-09-16T15:32:20;14.80;99.90
2729;DHT22;1372;47.956;7.830;2022-09-16T15:35:03;14.80;99.90
2729;DHT22;1372;47.956;7.830;2022-09-16T15:38:09;14.80;99.90
2729;DHT22;1372;47.956;7.830;2022-09-16T15:40:40;14.80;99.90
2729;DHT22;1372;47.956;7.830;2022-09-16T15:43:15;14.80;99.90
2729;DHT22;1372;47.956;7.830;2022-09-16T15:45:57;14.80;99.90
2729;DHT22;1372;47.956;7.830;2022-09-16T15:48:32;14.70;99.90
2729;DHT22;1372;47.956;7.830;2022-09-16T15:51:09;14.70;99.90
2729;DHT22;1372;47.956;7.830;2022-09-16T15:53:58;14.60;99.90
2729;DHT22;1372;47.956;7.830;2022-09-16T15:56:32;14.60;99.90
2729;DHT22;1372;47.956;7.830;2022-09-16T15:59:26;14.60;99.90
2729;DHT22;1372;47.956;7.830;2022-09-16T16:02:21;14.50;99.90
2729;DHT22;1372;47.956;7.830;2022-09-16T16:05:15;14.50;99.90
2729;DHT22;1372;47.956;7.830;2022-09-16T16:08:07;14.40;99.90
2729;DHT22;1372;47.956;7.830;2022-09-16T16:10:36;14.40;99.90
2729;DHT22;1372;47.956;7.830;2022-09-16T16:13:11;14.40;99.90
2729;DHT22;1372;47.956;7.830;2022-09-16T16:16:01;14.50;99.90
2729;DHT22;1372;47.956;7.830;2022-09-16T16:18:32;14.40;99.90
2729;DHT22;1372;47.956;7.830;2022-09-16T16:21:11;14.40;99.90
2729;DHT22;1372;47.956;7.830;2022-09-16T16:24:02;14.40;99.90
2729;DHT22;1372;47.956;7.830;2022-09-16T16:26:31;14.30;99.90
2729;DHT22;1372;47.956;7.830;2022-09-16T16:29:00;14.20;99.90
2729;DHT22;1372;47.956;7.830;2022-09-16T16:31:30;14.20;99.90
2729;DHT22;1372;47.956;7.830;2022-09-16T16:34:01;14.20;99.90
2729;DHT22;1372;47.956;7.830;2022-09-16T16:36:30;14.20;99.90
2729;DHT22;1372;47.956;7.830;2022-09-16T16:39:00;14.20;99.90
2729;DHT22;1372;47.956;7.830;2022-09-16T16:41:28;14.10;99.90
2729;DHT22;1372;47.956;7.830;2022-09-16T16:43:57;14.10;99.90
2729;DHT22;1372;47.956;7.830;2022-09-16T16:46:26;14.10;99.90
2729;DHT22;1372;47.956;7.830;2022-09-16T16:49:01;14.10;99.90
2729;DHT22;1372;47.956;7.830;2022-09-16T16:51:31;14.10;99.90
2729;DHT22;1372;47.956;7.830;2022-09-16T16:54:00;14.00;99.90
2729;DHT22;1372;47.956;7.830;2022-09-16T16:56:30;14.00;99.90
2729;DHT22;1372;47.956;7.830;2022-09-16T16:59:00;13.90;99.90
2729;DHT22;1372;47.956;7.830;2022-09-16T17:01:32;14.00;99.90
2729;DHT22;1372;47.956;7.830;2022-09-16T17:04:06;14.00;99.90
2729;DHT22;1372;47.956;7.830;2022-09-16T17:06:38;13.90;99.90
2729;DHT22;1372;47.956;7.830;2022-09-16T17:09:08;13.90;99.90
2729;DHT22;1372;47.956;7.830;2022-09-16T17:12:01;13.90;99.90
2729;DHT22;1372;47.956;7.830;2022-09-16T17:14:31;13.90;99.90
2729;DHT22;1372;47.956;7.830;2022-09-16T17:17:00;13.80;99.90
2729;DHT22;1372;47.956;7.830;2022-09-16T17:19:35;13.80;99.90
2729;DHT22;1372;47.956;7.830;2022-09-16T17:22:06;13.70;99.90
2729;DHT22;1372;47.956;7.830;2022-09-16T17:24:36;13.70;99.90
2729;DHT22;1372;47.956;7.830;2022-09-16T17:27:06;13.70;99.90
2729;DHT22;1372;47.956;7.830;2022-09-16T17:29:35;13.70;99.90